Time;durP1;ratioP1;P1;durP2;ratioP2;P2;SDS_P1;SDS_P2;PMS_P1;PMS_P2;Temp;Humidity;BMP_temperature;BMP_pressure;BME280_temperature;BME280_humidity;BME280_pressure;Samples;Min_cycle;Max_cycle;Signal;HPM_P1;HPM_P2
2021/10/20 00:01:14;;;;;;;;;5.50;5.00;;;;;21.61;48.51;100950.91;5032149;28;45528;-56
2021/10/20 00:03:40;;;;;;;;;9.50;8.75;;;;;21.62;48.03;100951.75;4978788;28;1107431;-56
2021/10/20 00:06:05;;;;;;;;;7.75;6.00;;;;;21.61;48.38;100948.28;5018578;28;45690;-56
2021/10/20 00:08:31;;;;;;;;;9.25;8.25;;;;;21.62;48.50;100938.56;5018159;28;45333;-56
2021/10/20 00:10:56;;;;;;;;;7.75;7.75;;;;;21.61;48.14;100929.81;5017935;28;45373;-56
2021/10/20 00:13:22;;;;;;;;;6.75;6.75;;;;;21.61;48.18;100932.44;5018080;28;45376;-56
2021/10/20 00:15:47;;;;;;;;;6.75;6.75;;;;;21.61;48.55;100929.81;5018158;28;45499;-56
2021/10/20 00:18:13;;;;;;;;;8.00;6.25;;;;;21.61;48.24;100927.16;5017655;28;45617;-56
2021/10/20 00:20:39;;;;;;;;;9.75;8.25;;;;;21.60;48.47;100927.28;5017659;28;45702;-56
2021/10/20 00:23:05;;;;;;;;;7.00;7.00;;;;;21.60;48.44;100922.84;5018201;28;45396;-56
2021/10/20 00:25:31;;;;;;;;;7.50;6.50;;;;;21.60;48.17;100912.28;5017941;28;45302;-56
2021/10/20 00:27:57;;;;;;;;;7.00;6.50;;;;;21.61;48.50;100910.47;4999944;28;46038;-56
2021/10/20 00:30:23;;;;;;;;;9.00;8.00;;;;;21.61;48.26;100902.56;5017516;28;45420;-56
2021/10/20 00:32:48;;;;;;;;;7.75;7.00;;;;;21.60;48.51;100899.09;5017549;28;45203;-56
2021/10/20 00:35:14;;;;;;;;;11.50;9.00;;;;;21.60;48.36;100899.09;5016995;28;45164;-56
2021/10/20 00:37:39;;;;;;;;;8.00;8.00;;;;;21.60;48.33;100896.47;5017374;28;46342;-56
2021/10/20 00:40:06;;;;;;;;;7.25;5.75;;;;;21.61;48.52;100897.28;5017741;28;45322;-56
2021/10/20 00:42:32;;;;;;;;;7.25;7.25;;;;;21.59;48.39;100892.13;5017753;28;45354;-56
2021/10/20 00:44:59;;;;;;;;;6.00;5.00;;;;;21.60;48.51;100896.47;5017568;28;45575;-56
2021/10/20 00:47:26;;;;;;;;;7.00;7.00;;;;;21.58;48.46;100887.75;5017254;28;46299;-57
2021/10/20 00:49:52;;;;;;;;;7.75;7.00;;;;;21.60;48.32;100885.06;5017285;28;45396;-57
2021/10/20 00:52:19;;;;;;;;;6.00;6.00;;;;;21.61;48.48;100887.59;5017449;28;45267;-57
2021/10/20 00:54:45;;;;;;;;;8.25;7.75;;;;;21.60;48.47;100869.25;5017399;28;45660;-56
2021/10/20 00:57:12;;;;;;;;;7.00;7.00;;;;;21.59;48.30;100870.19;5017158;28;46229;-56
2021/10/20 00:59:39;;;;;;;;;6.75;6.75;;;;;21.60;48.54;100872.72;5017323;28;45651;-57
2021/10/20 01:02:06;;;;;;;;;7.50;7.50;;;;;21.60;48.27;100864.81;5017723;28;45405;-57
2021/10/20 01:04:32;;;;;;;;;8.25;7.00;;;;;21.60;48.49;100866.59;5017297;28;45574;-56
2021/10/20 01:06:58;;;;;;;;;10.00;7.50;;;;;21.59;48.45;100857.00;5016949;28;46583;-56
2021/10/20 01:09:23;;;;;;;;;8.00;8.00;;;;;21.60;48.82;100854.25;5017128;28;45322;-57
2021/10/20 01:11:49;;;;;;;;;7.00;7.00;;;;;21.58;48.31;100860.53;5017254;28;45372;-57
2021/10/20 01:14:15;;;;;;;;;7.00;7.00;;;;;21.59;48.54;100868.38;4999524;28;45268;-57
2021/10/20 01:16:42;;;;;;;;;7.25;7.25;;;;;21.60;48.43;100861.34;5016822;28;46208;-57
2021/10/20 01:19:08;;;;;;;;;7.50;7.00;;;;;21.59;48.29;100857.84;4999417;28;45937;-57
2021/10/20 01:21:35;;;;;;;;;3.25;3.25;;;;;21.59;48.45;100852.56;5017260;28;45345;-56
2021/10/20 01:24:01;;;;;;;;;8.50;8.50;;;;;21.60;48.39;100845.50;5017189;28;45508;-57
2021/10/20 01:26:27;;;;;;;;;7.75;6.25;;;;;21.60;48.56;100848.97;5016703;28;46511;-57
2021/10/20 01:28:52;;;;;;;;;7.00;7.00;;;;;21.58;48.44;100835.00;5031992;28;45687;-57
2021/10/20 01:31:18;;;;;;;;;7.00;6.75;;;;;21.59;48.69;100836.72;5016922;28;45448;-57
2021/10/20 01:33:43;;;;;;;;;9.25;7.00;;;;;21.58;48.38;100834.16;5016899;28;45318;-56
2021/10/20 01:36:09;;;;;;;;;7.00;6.25;;;;;21.59;48.50;100825.34;5016902;28;45621;-57
2021/10/20 01:38:35;;;;;;;;;7.00;7.00;;;;;21.58;48.53;100824.44;5016677;28;45526;-57
2021/10/20 01:41:00;;;;;;;;;10.25;8.00;;;;;21.58;48.79;100824.44;5032130;28;45555;-57
2021/10/20 01:43:47;;;;;;;;;6.00;5.00;;;;;21.59;48.61;100817.44;5016793;28;45612;-58
2021/10/20 01:46:14;;;;;;;;;6.00;6.00;;;;;21.54;48.60;100807.13;5016220;28;45465;-57
2021/10/20 01:48:40;;;;;;;;;7.75;6.25;;;;;21.58;48.75;100811.25;5016692;28;45351;-57
2021/10/20 01:51:05;;;;;;;;;7.75;7.75;;;;;21.58;48.68;100816.53;5016727;28;45640;-57
2021/10/20 01:53:32;;;;;;;;;7.00;7.00;;;;;21.58;48.53;100802.53;5016826;28;45389;-56
2021/10/20 01:55:58;;;;;;;;;8.25;7.00;;;;;21.59;48.56;100801.63;5016309;28;45656;-56
2021/10/20 01:58:23;;;;;;;;;7.50;7.50;;;;;21.57;48.45;100791.09;5016210;28;45346;-57
2021/10/20 02:00:49;;;;;;;;;9.25;9.25;;;;;21.55;48.53;100777.16;5016550;28;45454;-57
2021/10/20 02:03:14;;;;;;;;;7.75;7.00;;;;;21.58;48.59;100776.97;5016343;28;45711;-57
2021/10/20 02:05:40;;;;;;;;;5.75;5.75;;;;;21.58;48.75;100770.88;5016586;28;46216;-57
2021/10/20 02:08:05;;;;;;;;;8.00;7.00;;;;;21.59;48.74;100769.97;5016174;28;45393;-57
2021/10/20 02:10:31;;;;;;;;;6.50;6.50;;;;;21.57;48.54;100767.38;5016164;28;45367;-57
2021/10/20 02:12:56;;;;;;;;;6.25;6.25;;;;;21.58;48.79;100760.31;5016448;28;45306;-56
2021/10/20 02:15:22;;;;;;;;;8.00;7.25;;;;;21.58;48.48;100755.06;5016051;28;45435;-57
2021/10/20 02:17:48;;;;;;;;;6.00;6.00;;;;;21.58;48.59;100745.34;5016234;28;45352;-57
2021/10/20 02:20:14;;;;;;;;;7.00;5.75;;;;;21.57;48.47;100750.72;5016104;28;45397;-56
2021/10/20 02:22:42;;;;;;;;;6.00;6.00;;;;;21.58;48.65;100750.59;5016707;28;45492;-57
2021/10/20 02:25:08;;;;;;;;;7.25;7.25;;;;;21.57;48.87;100748.06;5016161;28;46344;-57
2021/10/20 02:27:34;;;;;;;;;8.00;8.00;;;;;21.58;48.78;100744.50;5016009;28;45875;-57
2021/10/20 02:30:00;;;;;;;;;7.00;6.00;;;;;21.57;48.65;100738.34;5016107;28;45376;-57
2021/10/20 02:32:25;;;;;;;;;7.00;7.00;;;;;21.58;48.51;100733.94;5016279;28;45599;-57
2021/10/20 02:34:50;;;;;;;;;9.50;7.25;;;;;21.56;48.68;100710.28;5031104;28;47475;-57
2021/10/20 02:37:16;;;;;;;;;7.75;7.75;;;;;21.56;48.67;100710.28;5015784;28;45334;-57
2021/10/20 02:39:41;;;;;;;;;5.00;5.00;;;;;21.57;48.77;100706.72;5016113;28;45475;-57
2021/10/20 02:42:08;;;;;;;;;7.75;7.00;;;;;21.59;48.32;100698.75;5016266;28;45456;-56
2021/10/20 02:44:33;;;;;;;;;11.00;8.00;;;;;21.55;48.60;100703.31;5015652;28;46255;-57
2021/10/20 02:46:58;;;;;;;;;7.00;7.00;;;;;21.55;48.39;100697.22;5015798;28;45510;-57
2021/10/20 02:49:24;;;;;;;;;8.25;7.00;;;;;21.56;48.69;100683.91;5015767;28;46239;-57
2021/10/20 02:51:49;;;;;;;;;8.00;7.00;;;;;21.57;48.81;100679.50;5015926;28;45557;-57
2021/10/20 02:54:14;;;;;;;;;7.00;7.00;;;;;21.55;48.42;100674.31;5015369;28;46419;-57
2021/10/20 02:56:40;;;;;;;;;11.00;7.75;;;;;21.58;48.46;100686.47;5016326;28;45350;-57
2021/10/20 02:59:05;;;;;;;;;8.25;8.25;;;;;21.56;48.49;100678.66;5018985;28;45587;-57
2021/10/20 03:01:30;;;;;;;;;9.00;8.00;;;;;21.57;48.81;100663.69;5019351;28;45629;-57
2021/10/20 03:03:56;;;;;;;;;6.00;6.00;;;;;21.54;48.89;100664.72;5018817;28;45404;-57
2021/10/20 03:06:21;;;;;;;;;8.50;8.50;;;;;21.55;48.88;100665.56;5018861;28;45377;-57
2021/10/20 03:08:48;;;;;;;;;9.00;7.75;;;;;21.55;48.63;100663.75;5018952;28;45345;-57
2021/10/20 03:11:13;;;;;;;;;8.00;8.00;;;;;21.55;48.75;100676.94;5019429;28;45243;-57
2021/10/20 03:13:39;;;;;;;;;7.00;7.00;;;;;21.55;48.69;100676.94;5018752;28;45595;-57
2021/10/20 03:16:04;;;;;;;;;8.25;7.50;;;;;21.56;48.69;100678.66;5018841;28;45268;-57
2021/10/20 03:18:30;;;;;;;;;7.50;7.50;;;;;21.56;48.81;100689.19;5018871;28;45258;-57
2021/10/20 03:20:55;;;;;;;;;8.00;7.25;;;;;21.57;48.46;100693.53;5018999;28;45599;-57
2021/10/20 03:23:20;;;;;;;;;7.25;7.25;;;;;21.55;48.42;100694.56;5018525;28;48242;-58
2021/10/20 03:25:46;;;;;;;;;7.50;7.50;;;;;21.56;48.96;100710.28;5018508;28;45416;-57
2021/10/20 03:28:11;;;;;;;;;13.25;9.25;;;;;21.55;48.70;100705.97;5019050;28;45333;-57
2021/10/20 03:30:36;;;;;;;;;14.25;9.00;;;;;21.56;48.94;100707.66;5018861;28;45227;-57
2021/10/20 03:33:02;;;;;;;;;6.75;6.75;;;;;21.55;48.69;100690.13;5033599;28;46989;-57
2021/10/20 03:35:27;;;;;;;;;9.50;7.75;;;;;21.54;48.72;100675.28;5000709;28;46038;-58
2021/10/20 03:37:53;;;;;;;;;7.75;7.75;;;;;21.56;48.96;100667.25;5018661;28;45806;-57
2021/10/20 03:40:18;;;;;;;;;9.00;6.00;;;;;21.56;48.91;100678.66;5018731;28;45552;-57
2021/10/20 03:42:44;;;;;;;;;7.00;7.00;;;;;21.55;48.59;100671.69;5018657;28;46241;-58
2021/10/20 03:45:10;;;;;;;;;8.25;7.00;;;;;21.55;49.30;100666.41;5018391;28;45467;-57
2021/10/20 03:47:35;;;;;;;;;8.50;7.50;;;;;21.55;48.72;100676.13;5018686;28;45436;-56
2021/10/20 03:50:01;;;;;;;;;7.75;6.00;;;;;21.54;48.97;100672.66;5018604;28;45598;-56
2021/10/20 03:52:27;;;;;;;;;7.50;7.50;;;;;21.53;48.77;100668.31;5017920;28;45424;-56
2021/10/20 03:54:52;;;;;;;;;9.50;7.50;;;;;21.55;48.84;100660.28;5018188;28;45271;-57
2021/10/20 03:57:18;;;;;;;;;6.75;6.75;;;;;21.55;48.79;100669.03;5018293;28;45338;-57
2021/10/20 03:59:44;;;;;;;;;8.00;8.00;;;;;21.55;49.02;100666.41;5018623;28;45242;-56
2021/10/20 04:02:10;;;;;;;;;9.25;7.75;;;;;21.54;48.88;100667.38;5000223;28;46598;-57
2021/10/20 04:04:35;;;;;;;;;8.00;8.00;;;;;21.54;48.84;100662.09;5033244;28;46108;-56
2021/10/20 04:07:01;;;;;;;;;10.50;8.00;;;;;21.54;48.95;100664.72;5018073;28;45271;-57
2021/10/20 04:09:26;;;;;;;;;9.50;7.50;;;;;21.54;48.91;100648.06;5016970;28;45469;-57
2021/10/20 04:11:52;;;;;;;;;8.50;7.25;;;;;21.54;48.80;100634.88;5017768;28;45403;-56
2021/10/20 04:14:17;;;;;;;;;9.50;9.50;;;;;21.53;49.08;100620.84;5018140;28;45255;-56
2021/10/20 04:16:43;;;;;;;;;7.50;6.25;;;;;21.54;48.93;100616.41;5018134;28;45581;-57
2021/10/20 04:19:08;;;;;;;;;8.00;8.00;;;;;21.52;48.87;100613.88;5018039;28;46132;-57
2021/10/20 04:21:33;;;;;;;;;8.00;8.00;;;;;21.54;49.08;100613.75;5017666;28;45452;-57
2021/10/20 04:23:59;;;;;;;;;7.00;7.00;;;;;21.51;49.03;100609.53;5017707;28;45444;-56
2021/10/20 04:26:24;;;;;;;;;11.00;8.75;;;;;21.54;48.76;100616.41;5000102;28;45317;-56
2021/10/20 04:28:49;;;;;;;;;8.25;7.00;;;;;21.53;48.75;100626.13;5018040;28;45361;-57
2021/10/20 04:31:14;;;;;;;;;9.25;9.25;;;;;21.53;48.96;100618.22;5017864;28;45448;-57
2021/10/20 04:33:40;;;;;;;;;7.25;7.00;;;;;21.54;49.14;100617.28;5017494;28;45388;-57
2021/10/20 04:36:05;;;;;;;;;8.25;7.25;;;;;21.53;49.04;100604.16;5017652;28;45306;-57
2021/10/20 04:38:31;;;;;;;;;6.75;6.75;;;;;21.54;48.93;100592.66;5017646;28;45321;-57
2021/10/20 04:40:56;;;;;;;;;8.00;8.00;;;;;21.53;48.82;100583.94;5017409;28;46773;-57
2021/10/20 04:43:22;;;;;;;;;8.00;7.00;;;;;21.53;49.10;100622.63;5017413;28;45403;-56
2021/10/20 04:45:47;;;;;;;;;10.25;10.00;;;;;21.52;48.77;100624.44;5017862;28;45342;-57
2021/10/20 04:48:13;;;;;;;;;9.75;8.50;;;;;21.53;49.01;100631.41;5017630;28;45333;-56
2021/10/20 04:50:38;;;;;;;;;7.00;7.00;;;;;21.52;48.67;100627.06;4999346;28;47737;-56
2021/10/20 04:53:04;;;;;;;;;10.25;8.75;;;;;21.52;48.77;100619.16;5017279;28;45399;-56
2021/10/20 04:55:30;;;;;;;;;8.50;7.00;;;;;21.53;48.88;100626.13;4999659;28;45315;-58
2021/10/20 04:57:55;;;;;;;;;10.25;9.00;;;;;21.53;49.22;100630.53;5016284;28;45231;-56
2021/10/20 05:00:24;;;;;;;;;10.25;9.00;;;;;21.54;49.00;100633.09;5016873;28;46422;-56
2021/10/20 05:02:50;;;;;;;;;9.75;7.25;;;;;21.55;49.26;100647.09;5017193;28;45357;-56
2021/10/20 05:05:16;;;;;;;;;7.25;6.25;;;;;21.55;49.15;100647.09;5017539;28;45320;-56
2021/10/20 05:07:46;;;;;;;;;11.00;9.00;;;;;21.54;49.10;100640.13;5017302;28;45404;-56
2021/10/20 05:10:11;;;;;;;;;7.50;7.00;;;;;21.54;48.82;100630.44;5016894;28;46603;-56
2021/10/20 05:12:37;;;;;;;;;11.50;8.00;;;;;21.51;49.11;100621.84;5016916;28;45382;-56
2021/10/20 05:15:02;;;;;;;;;7.75;7.75;;;;;21.55;49.04;100647.94;5017038;28;45318;-57
2021/10/20 05:17:28;;;;;;;;;9.25;7.75;;;;;21.54;48.75;100632.22;5017151;28;45243;-57
2021/10/20 05:19:53;;;;;;;;;8.75;7.00;;;;;21.52;48.96;100621.78;5016225;28;45475;-57
2021/10/20 05:22:18;;;;;;;;;8.00;8.00;;;;;21.53;49.23;100631.41;5017170;28;45326;-57
2021/10/20 05:24:44;;;;;;;;;11.50;10.00;;;;;21.53;49.01;100618.22;5016938;28;45408;-58
2021/10/20 05:27:09;;;;;;;;;7.75;7.75;;;;;21.53;49.33;100607.66;5017006;28;45523;-57
2021/10/20 05:29:34;;;;;;;;;9.25;7.00;;;;;21.55;48.97;100603.09;5016531;28;46416;-57
2021/10/20 05:32:00;;;;;;;;;8.00;7.00;;;;;21.57;49.05;100601.22;5016772;28;45408;-57
2021/10/20 05:34:26;;;;;;;;;7.50;7.00;;;;;21.55;48.81;100603.09;5016818;28;45352;-57
2021/10/20 05:36:51;;;;;;;;;10.25;8.00;;;;;21.56;49.15;100588.97;5017213;28;45295;-56
2021/10/20 05:39:16;;;;;;;;;7.00;7.00;;;;;21.55;49.20;100595.19;5016362;28;45531;-56
2021/10/20 05:41:42;;;;;;;;;8.25;8.00;;;;;21.54;49.47;100558.38;5016775;28;45845;-56
2021/10/20 05:44:07;;;;;;;;;8.25;8.25;;;;;21.54;49.02;100580.34;5016632;28;45922;-57
2021/10/20 05:46:33;;;;;;;;;7.75;6.50;;;;;21.53;48.93;100560.19;5016802;28;45424;-56
2021/10/20 05:48:58;;;;;;;;;9.00;7.50;;;;;21.53;49.28;100551.41;4998704;28;45361;-57
2021/10/20 05:51:23;;;;;;;;;8.00;8.00;;;;;21.53;49.42;100560.19;5016425;28;45341;-57
2021/10/20 05:53:49;;;;;;;;;8.50;8.50;;;;;21.54;49.26;100542.56;4999051;28;45326;-59
2021/10/20 05:56:14;;;;;;;;;9.75;9.00;;;;;21.54;49.32;100553.97;5016595;28;45282;-57
2021/10/20 05:58:39;;;;;;;;;7.75;7.75;;;;;21.55;49.34;100560.09;5016008;28;45281;-57
2021/10/20 06:01:05;;;;;;;;;9.00;7.75;;;;;21.55;49.26;100554.81;5016302;28;46091;-57
2021/10/20 06:03:30;;;;;;;;;11.75;10.50;;;;;21.54;49.56;100548.72;5016204;28;45626;-57
2021/10/20 06:05:56;;;;;;;;;11.25;9.75;;;;;21.51;49.16;100533.06;5016414;28;45465;-57
2021/10/20 06:08:21;;;;;;;;;7.50;7.50;;;;;21.55;49.40;100555.66;5016421;28;45252;-57
2021/10/20 06:10:47;;;;;;;;;9.50;8.75;;;;;21.55;49.30;100550.38;5016118;28;45285;-57
2021/10/20 06:13:12;;;;;;;;;9.00;8.00;;;;;21.56;49.26;100554.69;5016252;28;45188;-57
2021/10/20 06:15:41;;;;;;;;;10.50;8.75;;;;;21.56;49.40;100557.34;5016351;28;45248;-57
2021/10/20 06:18:06;;;;;;;;;7.00;7.00;;;;;21.58;49.82;100546.72;5015781;28;46483;-57
2021/10/20 06:20:32;;;;;;;;;7.25;6.75;;;;;21.57;49.80;100537.09;5015943;28;45322;-56
2021/10/20 06:22:57;;;;;;;;;8.25;7.50;;;;;21.56;49.68;100509.88;5016104;28;45408;-57
2021/10/20 06:25:23;;;;;;;;;9.50;9.50;;;;;21.57;49.60;100505.47;5015312;28;45441;-57
2021/10/20 06:27:48;;;;;;;;;7.00;7.00;;;;;21.53;49.48;100501.31;5015980;28;46308;-57
2021/10/20 06:30:13;;;;;;;;;8.00;8.00;;;;;21.55;49.61;100508.19;5015970;28;45357;-57
2021/10/20 06:32:42;;;;;;;;;7.75;6.50;;;;;21.54;49.22;100501.25;5017995;28;45254;-57
2021/10/20 06:35:10;;;;;;;;;9.25;8.50;;;;;21.54;49.22;100505.66;5019008;28;45548;-57
2021/10/20 06:37:35;;;;;;;;;12.00;9.00;;;;;21.55;49.56;100524.00;5017910;28;47731;-57
2021/10/20 06:40:01;;;;;;;;;8.75;7.75;;;;;21.53;49.62;100510.09;5019338;28;45359;-57
2021/10/20 06:42:27;;;;;;;;;12.00;8.50;;;;;21.54;49.64;100511.78;5019312;28;45395;-57
2021/10/20 06:44:54;;;;;;;;;9.25;9.00;;;;;21.53;49.48;100518.00;5019783;28;45617;-57
2021/10/20 06:47:20;;;;;;;;;7.00;7.00;;;;;21.54;49.43;100517.06;5019225;28;46702;-57
2021/10/20 06:49:45;;;;;;;;;10.00;8.25;;;;;21.53;49.56;100504.81;5034541;28;45796;-56
2021/10/20 06:52:10;;;;;;;;;10.50;8.00;;;;;21.51;49.63;100497.94;5019232;28;45677;-57
2021/10/20 06:54:36;;;;;;;;;7.50;7.00;;;;;21.53;49.31;100504.81;5001619;28;45297;-57
2021/10/20 06:57:01;;;;;;;;;9.25;9.00;;;;;21.54;49.30;100503.00;5018872;28;47237;-57
2021/10/20 06:59:26;;;;;;;;;8.50;7.50;;;;;21.52;49.57;100491.72;5017676;28;46155;-57
2021/10/20 07:01:52;;;;;;;;;9.75;9.00;;;;;21.52;49.50;100497.84;5019389;28;45239;-57
2021/10/20 07:04:17;;;;;;;;;9.00;7.75;;;;;21.51;49.76;100482.97;5001317;28;45599;-57
2021/10/20 07:06:42;;;;;;;;;6.25;6.25;;;;;21.53;49.42;100477.59;5018812;28;46694;-57
2021/10/20 07:09:08;;;;;;;;;10.00;7.00;;;;;21.52;49.56;100476.75;5018869;28;45289;-56
2021/10/20 07:11:33;;;;;;;;;7.25;7.25;;;;;21.53;49.32;100474.94;5019006;28;45440;-57
2021/10/20 07:13:59;;;;;;;;;8.25;8.25;;;;;21.53;49.29;100493.41;5019107;28;45507;-57
2021/10/20 07:16:24;;;;;;;;;8.25;8.25;;;;;21.52;49.27;100470.63;5018898;28;49786;-57
2021/10/20 07:18:50;;;;;;;;;8.00;8.00;;;;;21.52;49.50;100475.91;5018637;28;45434;-57
2021/10/20 07:21:17;;;;;;;;;7.00;7.00;;;;;21.52;49.38;100468.84;5018932;28;45420;-57
2021/10/20 07:23:42;;;;;;;;;10.75;7.00;;;;;21.51;49.22;100464.50;5018994;28;45422;-57
2021/10/20 07:26:08;;;;;;;;;8.75;8.75;;;;;21.52;49.64;100453.03;5018644;28;47663;-57
2021/10/20 07:28:34;;;;;;;;;9.50;9.50;;;;;21.49;49.33;100445.31;5018554;28;45526;-57
2021/10/20 07:30:59;;;;;;;;;7.50;7.00;;;;;21.51;49.82;100453.97;5017699;28;45251;-57
2021/10/20 07:33:24;;;;;;;;;9.50;7.50;;;;;21.50;49.24;100457.53;5019189;28;45506;-57
2021/10/20 07:35:50;;;;;;;;;9.75;9.75;;;;;21.50;49.50;100456.72;5018414;28;46221;-57
2021/10/20 07:38:16;;;;;;;;;10.25;10.25;;;;;21.50;49.65;100460.19;5018600;28;45263;-57
2021/10/20 07:40:41;;;;;;;;;8.00;7.50;;;;;21.52;49.54;100462.72;5018589;28;45431;-57
2021/10/20 07:43:06;;;;;;;;;7.50;7.50;;;;;21.50;49.47;100478.66;5018398;28;45496;-57
2021/10/20 07:45:32;;;;;;;;;8.50;6.75;;;;;21.51;49.52;100472.44;5018339;28;45368;-57
2021/10/20 07:47:58;;;;;;;;;8.75;8.25;;;;;21.52;49.63;100475.91;5018497;28;45235;-57
2021/10/20 07:50:23;;;;;;;;;9.00;9.00;;;;;21.52;49.61;100492.56;5018797;28;45729;-57
2021/10/20 07:52:49;;;;;;;;;9.00;9.00;;;;;21.52;49.12;100491.72;5018596;28;45533;-57
2021/10/20 07:55:21;;;;;;;;;8.75;8.75;;;;;21.52;49.27;100502.25;5018033;28;46632;-56
2021/10/20 07:57:46;;;;;;;;;11.00;9.50;;;;;21.52;49.49;100516.31;5018079;28;45240;-56
2021/10/20 08:00:13;;;;;;;;;11.25;8.25;;;;;21.52;49.23;100503.13;5018097;28;45368;-56
2021/10/20 08:02:38;;;;;;;;;10.75;7.25;;;;;21.52;49.69;100513.69;5018268;28;45524;-56
2021/10/20 08:05:04;;;;;;;;;8.50;8.50;;;;;21.51;49.48;100511.97;5017852;28;46112;-57
2021/10/20 08:07:29;;;;;;;;;9.50;9.00;;;;;21.51;49.65;100511.13;5017924;28;45405;-57
2021/10/20 08:09:55;;;;;;;;;10.00;7.50;;;;;21.50;49.45;100510.28;5018137;28;45412;-56
2021/10/20 08:12:21;;;;;;;;;8.75;8.75;;;;;21.52;49.71;100515.44;5033696;28;45461;-57
2021/10/20 08:14:47;;;;;;;;;8.00;8.00;;;;;21.52;49.35;100510.16;5017637;28;46401;-57
2021/10/20 08:17:13;;;;;;;;;10.00;10.00;;;;;21.50;49.44;100504.19;5017850;28;45282;-57
2021/10/20 08:19:39;;;;;;;;;10.50;10.25;;;;;21.50;49.43;100505.00;5017836;28;45305;-57
2021/10/20 08:22:05;;;;;;;;;1.00;0.00;;;;;21.52;49.28;100521.59;5018313;28;45455;-57
2021/10/20 08:24:31;;;;;;;;;8.50;8.50;;;;;21.51;49.33;100529.56;5017578;28;46504;-57
2021/10/20 08:26:56;;;;;;;;;12.25;10.00;;;;;21.52;49.81;100532.13;5000304;28;45208;-57
2021/10/20 08:29:22;;;;;;;;;10.25;10.00;;;;;21.52;49.68;100529.50;4999924;28;45250;-57
2021/10/20 08:31:47;;;;;;;;;9.00;9.00;;;;;21.52;49.76;100524.22;5017934;28;45239;-57
2021/10/20 08:34:13;;;;;;;;;9.25;8.25;;;;;21.51;49.69;100529.56;5017424;28;46283;-57
2021/10/20 08:36:38;;;;;;;;;14.00;10.00;;;;;21.48;49.94;100517.44;5017540;28;45237;-57
2021/10/20 08:39:04;;;;;;;;;11.25;10.25;;;;;21.52;49.78;100515.44;5017578;28;45349;-56
2021/10/20 08:41:30;;;;;;;;;9.50;8.75;;;;;21.51;49.69;100524.28;5018292;28;45336;-57
2021/10/20 08:43:57;;;;;;;;;10.00;9.00;;;;;21.51;49.45;100517.25;5017767;28;45350;-56
2021/10/20 08:46:25;;;;;;;;;13.25;9.00;;;;;21.51;49.64;100511.97;5017519;28;45303;-56
2021/10/20 08:48:54;;;;;;;;;9.50;9.50;;;;;21.51;49.55;100517.25;5017573;28;45429;-56
2021/10/20 08:51:22;;;;;;;;;7.50;7.50;;;;;21.53;49.82;100527.69;5017564;28;45435;-56
2021/10/20 08:53:48;;;;;;;;;8.00;8.00;;;;;21.51;49.86;100533.06;5017076;28;47154;-57
2021/10/20 08:56:16;;;;;;;;;8.00;8.00;;;;;21.52;49.65;100540.03;5016611;28;45395;-57
2021/10/20 08:58:42;;;;;;;;;10.75;10.00;;;;;21.52;49.56;100537.41;5017120;28;45305;-57
2021/10/20 09:01:07;;;;;;;;;8.00;7.00;;;;;21.52;49.76;100532.13;5017558;28;45218;-57
2021/10/20 09:03:32;;;;;;;;;9.75;9.75;;;;;21.51;49.85;100538.34;5016935;28;46416;-57
2021/10/20 09:05:58;;;;;;;;;12.00;10.25;;;;;21.50;49.73;100536.66;5017379;28;45339;-57
2021/10/20 09:08:23;;;;;;;;;10.00;10.00;;;;;21.50;49.82;100528.75;5017181;28;45384;-57
2021/10/20 09:10:49;;;;;;;;;9.50;9.50;;;;;21.51;49.98;100527.81;5017172;28;45436;-57
2021/10/20 09:13:14;;;;;;;;;9.00;9.00;;;;;21.51;50.10;100519.88;5016809;28;46208;-57
2021/10/20 09:15:41;;;;;;;;;11.00;9.25;;;;;21.51;49.71;100525.16;5016918;28;45354;-56
2021/10/20 09:18:12;;;;;;;;;10.00;10.00;;;;;21.49;49.91;100513.88;5017062;28;45318;-57
2021/10/20 09:20:41;;;;;;;;;9.50;9.50;;;;;21.52;49.81;100518.09;5017172;28;45360;-57
2021/10/20 09:23:18;;;;;;;;;11.50;8.50;;;;;21.51;49.85;100511.97;5016845;28;45381;-57
2021/10/20 09:25:45;;;;;;;;;10.00;9.00;;;;;21.53;49.69;100519.78;4999010;28;45956;-56
2021/10/20 09:28:34;;;;;;;;;10.00;10.00;;;;;21.53;49.74;100522.41;5016799;28;45329;-56
2021/10/20 09:31:02;;;;;;;;;8.00;8.00;;;;;21.51;49.80;100513.75;5017372;28;45420;-56
2021/10/20 09:33:28;;;;;;;;;10.00;10.00;;;;;21.52;49.57;100512.81;5016676;28;46409;-57
2021/10/20 09:35:59;;;;;;;;;9.75;9.75;;;;;21.52;49.90;100508.41;4999049;28;45388;-57
2021/10/20 09:38:45;;;;;;;;;9.25;9.25;;;;;21.53;49.94;100514.50;5016694;28;45479;-56
2021/10/20 09:41:10;;;;;;;;;10.00;10.00;;;;;21.51;49.91;100511.97;5016749;28;45494;-56
2021/10/20 09:43:53;;;;;;;;;13.00;9.25;;;;;21.52;49.89;100513.69;5016487;28;45330;-57
2021/10/20 09:46:31;;;;;;;;;12.50;8.50;;;;;21.52;50.03;100508.41;4998858;28;46066;-57
2021/10/20 09:49:00;;;;;;;;;13.75;11.25;;;;;21.52;50.04;100497.00;5016593;28;45409;-56
2021/10/20 09:51:26;;;;;;;;;12.00;10.00;;;;;21.53;50.05;100507.47;5016865;28;45543;-57
2021/10/20 09:53:52;;;;;;;;;9.75;8.50;;;;;21.52;50.02;100513.69;5016241;28;45550;-57
2021/10/20 09:56:30;;;;;;;;;8.50;8.50;;;;;21.53;49.75;100510.09;5016505;28;45381;-56
2021/10/20 09:58:56;;;;;;;;;11.00;9.25;;;;;21.52;50.15;100500.50;5016322;28;45431;-57
2021/10/20 10:01:25;;;;;;;;;10.00;10.00;;;;;21.53;50.08;100502.19;5016686;28;45457;-57
2021/10/20 10:03:52;;;;;;;;;10.00;8.75;;;;;21.53;49.94;100496.91;5015994;28;45465;-57
2021/10/20 10:06:18;;;;;;;;;8.00;8.00;;;;;21.54;50.00;100489.84;4999818;28;45803;-56
2021/10/20 10:08:45;;;;;;;;;14.00;11.00;;;;;21.53;49.91;100491.63;5002230;28;45582;-56
2021/10/20 10:11:10;;;;;;;;;12.50;9.00;;;;;21.55;49.74;100480.97;5020166;28;45313;-56
2021/10/20 10:13:51;;;;;;;;;9.50;9.00;;;;;21.53;49.83;100489.00;5019712;28;46399;-56
2021/10/20 10:16:20;;;;;;;;;13.50;9.50;;;;;21.54;50.10;100482.78;5001777;28;45441;-56
2021/10/20 10:18:47;;;;;;;;;9.25;8.50;;;;;21.55;49.89;100489.72;5019794;28;45266;-56
2021/10/20 10:21:35;;;;;;;;;10.00;10.00;;;;;21.54;50.15;100480.16;5019907;28;45305;-57
2021/10/20 10:24:03;;;;;;;;;10.75;8.50;;;;;21.54;49.84;100480.16;5035260;28;47178;-57
2021/10/20 10:26:34;;;;;;;;;12.75;10.25;;;;;21.55;50.17;100480.97;5019577;28;45373;-56
2021/10/20 10:29:13;;;;;;;;;7.75;6.75;;;;;21.54;50.27;100477.50;5019609;28;45287;-56
2021/10/20 10:31:43;;;;;;;;;8.50;8.50;;;;;21.54;49.94;100480.16;5020030;28;45598;-56
2021/10/20 10:34:30;;;;;;;;;8.75;8.75;;;;;21.55;50.21;100467.78;5019445;28;46446;-56
2021/10/20 10:36:59;;;;;;;;;8.50;8.50;;;;;21.56;49.75;100472.94;5019415;28;45759;-57
2021/10/20 10:39:25;;;;;;;;;10.50;9.00;;;;;21.56;49.67;100472.94;5019364;28;45389;-56
2021/10/20 10:42:05;;;;;;;;;11.00;11.00;;;;;21.54;49.92;100464.31;5019689;28;45511;-56
2021/10/20 10:44:52;;;;;;;;;8.00;8.00;;;;;21.57;49.73;100463.28;5001447;28;46144;-56
2021/10/20 10:47:27;;;;;;;;;10.00;10.00;;;;;21.56;50.07;100465.03;5001182;28;45338;-57
2021/10/20 10:49:57;;;;;;;;;9.25;9.00;;;;;21.55;49.88;100460.72;5019428;28;45460;-56
2021/10/20 10:52:36;;;;;;;;;9.00;9.00;;;;;21.55;50.17;100450.16;5019524;28;45523;-57
2021/10/20 10:55:27;;;;;;;;;9.75;9.25;;;;;21.56;50.06;100441.31;5019114;28;46244;-61
2021/10/20 10:58:01;;;;;;;;;9.00;7.25;;;;;21.57;50.35;100443.00;5015246;28;45797;-56
2021/10/20 11:00:41;;;;;;;;;12.25;11.50;;;;;21.58;49.98;100435.94;5019210;28;45373;-57
2021/10/20 11:03:10;;;;;;;;;9.25;9.25;;;;;21.58;50.34;100447.34;5019505;28;45317;-56
2021/10/20 11:05:36;;;;;;;;;9.00;9.00;;;;;21.55;50.07;100450.16;5019321;28;46755;-56
2021/10/20 11:08:04;;;;;;;;;9.00;8.25;;;;;21.59;49.93;100450.88;5019018;28;45734;-57
2021/10/20 11:10:30;;;;;;;;;12.00;10.75;;;;;21.59;50.48;100443.78;5019119;28;45293;-56
2021/10/20 11:12:57;;;;;;;;;11.00;11.00;;;;;21.60;50.11;100457.84;5019195;28;45388;-57
2021/10/20 11:15:24;;;;;;;;;13.00;11.00;;;;;21.58;50.18;100443.88;5018787;28;46446;-56
2021/10/20 11:17:50;;;;;;;;;9.25;9.25;;;;;21.59;50.18;100442.94;5000342;28;45908;-56
2021/10/20 11:20:18;;;;;;;;;14.00;10.00;;;;;21.58;50.34;100434.16;5018774;28;45479;-57